Time;durP1;ratioP1;P1;durP2;ratioP2;P2;SDS_P1;SDS_P2;PMS_P1;PMS_P2;Temp;Humidity;BMP_temperature;BMP_pressure;BME280_temperature;BME280_humidity;BME280_pressure;Samples;Min_cycle;Max_cycle;Signal;HPM_P1;HPM_P2
2022/11/26 00:00:21;;;;;;;27.83;16.10;;;6.80;99.90;;;;;;4913045;29;20490;-75
2022/11/26 00:02:48;;;;;;;23.17;14.50;;;6.80;99.90;;;;;;4911063;29;20507;-76
2022/11/26 00:05:16;;;;;;;22.93;14.37;;;6.90;99.90;;;;;;4913068;29;20474;-75
2022/11/26 00:07:47;;;;;;;36.87;22.90;;;6.80;99.90;;;;;;4912868;29;20522;-77
2022/11/26 00:10:19;;;;;;;46.33;29.17;;;6.90;99.90;;;;;;4912535;29;20964;-74
2022/11/26 00:12:48;;;;;;;70.60;40.00;;;6.90;99.90;;;;;;4913002;29;20989;-75
2022/11/26 00:15:17;;;;;;;50.17;31.17;;;6.90;99.90;;;;;;4913032;29;20970;-76
2022/11/26 00:17:44;;;;;;;39.47;23.17;;;6.90;99.90;;;;;;4912996;29;20451;-76
2022/11/26 00:20:10;;;;;;;45.33;26.80;;;6.80;99.90;;;;;;4913237;29;20467;-76
2022/11/26 00:22:41;;;;;;;36.13;23.07;;;6.80;99.90;;;;;;4912006;29;20491;-75
2022/11/26 00:25:14;;;;;;;39.37;22.53;;;6.80;99.90;;;;;;4912863;29;20972;-76
2022/11/26 00:27:41;;;;;;;42.90;23.83;;;6.80;99.90;;;;;;4913239;29;21063;-76
2022/11/26 00:30:23;;;;;;;27.97;20.47;;;6.80;99.90;;;;;;4912755;29;20470;-74
2022/11/26 00:32:51;;;;;;;27.40;17.70;;;6.80;99.90;;;;;;4913148;29;20487;-74
2022/11/26 00:35:18;;;;;;;27.83;19.20;;;6.80;99.90;;;;;;4913408;29;20464;-76
2022/11/26 00:37:48;;;;;;;29.83;20.50;;;6.80;99.90;;;;;;4913076;29;20460;-75
2022/11/26 00:40:23;;;;;;;24.70;15.70;;;6.80;99.90;;;;;;4911072;29;20834;-74
2022/11/26 00:42:50;;;;;;;23.00;15.00;;;6.80;99.90;;;;;;4910026;29;20995;-74
2022/11/26 00:45:24;;;;;;;19.50;13.37;;;6.70;99.90;;;;;;4911162;29;20459;-74
2022/11/26 00:47:52;;;;;;;24.20;14.27;;;6.70;99.90;;;;;;4911206;29;20463;-75
2022/11/26 00:50:20;;;;;;;20.50;14.00;;;6.70;99.90;;;;;;4911828;29;20464;-74
2022/11/26 00:52:49;;;;;;;18.50;13.07;;;6.70;99.90;;;;;;4910855;29;20487;-73
2022/11/26 00:55:26;;;;;;;26.80;14.03;;;6.60;99.90;;;;;;4910692;29;20466;-74
2022/11/26 00:57:53;;;;;;;26.33;16.30;;;6.70;99.90;;;;;;4910682;29;20459;-74
2022/11/26 01:00:24;;;;;;;29.87;15.30;;;6.60;99.90;;;;;;4910797;29;20522;-75
2022/11/26 01:02:51;;;;;;;24.23;16.33;;;6.60;99.90;;;;;;4909698;29;20507;-74
2022/11/26 01:05:19;;;;;;;20.07;15.20;;;6.60;99.90;;;;;;4910913;29;20466;-74
2022/11/26 01:07:47;;;;;;;27.57;16.37;;;6.60;99.90;;;;;;4910726;29;20463;-74
2022/11/26 01:10:20;;;;;;;21.00;14.40;;;6.60;99.90;;;;;;4910524;29;20467;-74
2022/11/26 01:12:47;;;;;;;25.00;16.53;;;6.60;99.90;;;;;;4910131;29;20975;-75
2022/11/26 01:15:16;;;;;;;21.17;14.97;;;6.70;99.90;;;;;;4909455;29;20471;-74
2022/11/26 01:17:44;;;;;;;22.40;14.87;;;6.70;99.90;;;;;;4910197;29;20448;-74
2022/11/26 01:20:23;;;;;;;26.50;14.70;;;6.70;99.90;;;;;;4909924;29;20463;-74
2022/11/26 01:22:50;;;;;;;27.30;16.23;;;6.70;99.90;;;;;;4909331;29;20526;-74
2022/11/26 01:25:17;;;;;;;23.63;15.40;;;6.80;99.90;;;;;;4910454;29;21306;-75
2022/11/26 01:27:45;;;;;;;21.43;14.40;;;6.80;99.90;;;;;;4910224;29;20893;-74
2022/11/26 01:30:18;;;;;;;20.03;14.60;;;6.80;99.90;;;;;;4910280;29;20963;-74
2022/11/26 01:32:46;;;;;;;21.27;15.63;;;6.90;99.90;;;;;;4909692;29;20848;-74
2022/11/26 01:35:13;;;;;;;23.23;15.97;;;6.80;99.90;;;;;;4910154;29;20460;-74
2022/11/26 01:37:40;;;;;;;23.90;16.60;;;6.90;99.90;;;;;;4910167;29;20470;-74
2022/11/26 01:40:32;;;;;;;22.53;16.07;;;6.80;99.90;;;;;;4910036;29;20460;-74
2022/11/26 01:43:03;;;;;;;22.87;15.80;;;6.80;99.90;;;;;;4909293;29;20506;-74
2022/11/26 01:45:30;;;;;;;25.00;15.40;;;6.80;99.90;;;;;;4910106;29;20466;-74
2022/11/26 01:47:58;;;;;;;20.70;15.43;;;6.80;99.90;;;;;;4909893;29;20984;-74
2022/11/26 01:51:03;;;;;;;20.23;13.77;;;6.80;99.90;;;;;;4909803;29;20463;-74
2022/11/26 01:53:37;;;;;;;20.73;14.73;;;6.80;99.90;;;;;;4909029;29;20486;-74
2022/11/26 01:56:11;;;;;;;22.03;14.50;;;6.90;99.90;;;;;;4909811;29;20464;-74
2022/11/26 01:58:41;;;;;;;20.23;15.27;;;6.80;99.90;;;;;;4909733;29;20467;-74
2022/11/26 02:01:09;;;;;;;18.77;14.90;;;6.80;99.90;;;;;;4909649;29;20459;-74
2022/11/26 02:03:43;;;;;;;19.63;14.07;;;6.80;99.90;;;;;;4908785;29;20503;-73
2022/11/26 02:06:13;;;;;;;20.80;13.73;;;6.80;99.90;;;;;;4909472;29;20800;-74
2022/11/26 02:08:41;;;;;;;20.73;15.20;;;6.80;99.90;;;;;;4909491;29;20912;-74
2022/11/26 02:11:19;;;;;;;21.90;15.60;;;6.80;99.90;;;;;;4909397;29;20455;-74
2022/11/26 02:13:48;;;;;;;19.77;14.53;;;6.80;99.90;;;;;;4909005;29;20459;-74
2022/11/26 02:16:24;;;;;;;21.20;14.63;;;6.80;99.90;;;;;;4908726;29;20467;-75
2022/11/26 02:19:09;;;;;;;22.30;13.43;;;6.90;99.90;;;;;;4909832;29;20451;-74
2022/11/26 02:21:38;;;;;;;17.77;13.33;;;6.90;99.90;;;;;;4908584;29;21010;-74
2022/11/26 02:24:22;;;;;;;16.87;12.23;;;6.90;99.90;;;;;;4909277;29;20501;-74
2022/11/26 02:27:31;;;;;;;18.27;13.50;;;6.90;99.90;;;;;;4912495;29;20452;-74
2022/11/26 02:30:05;;;;;;;16.87;11.90;;;6.90;99.90;;;;;;4892704;29;20466;-74
2022/11/26 02:32:40;;;;;;;17.37;12.60;;;6.90;99.90;;;;;;4912708;29;20479;-74
2022/11/26 02:35:11;;;;;;;23.03;13.00;;;6.90;99.90;;;;;;4913519;29;20454;-73
2022/11/26 02:37:42;;;;;;;18.47;13.17;;;6.90;99.90;;;;;;4913560;29;20474;-74
2022/11/26 02:40:10;;;;;;;16.63;12.27;;;6.90;99.90;;;;;;4913440;29;20466;-74
2022/11/26 02:42:37;;;;;;;18.30;13.30;;;6.90;99.90;;;;;;4911997;29;20529;-74
2022/11/26 02:45:10;;;;;;;18.57;13.00;;;6.90;99.90;;;;;;4912951;29;20459;-74
2022/11/26 02:47:39;;;;;;;15.90;12.33;;;6.90;99.90;;;;;;4912977;29;20459;-74
2022/11/26 02:50:10;;;;;;;18.87;13.47;;;6.90;99.90;;;;;;4912871;29;20951;-72
2022/11/26 02:52:39;;;;;;;23.30;15.20;;;6.80;99.90;;;;;;4912157;29;20475;-72
2022/11/26 02:55:08;;;;;;;26.00;14.07;;;6.80;99.90;;;;;;4912849;29;20455;-71
2022/11/26 02:57:41;;;;;;;18.17;11.80;;;6.90;99.90;;;;;;4912877;29;20469;-72
2022/11/26 03:00:11;;;;;;;18.37;12.10;;;6.90;99.90;;;;;;4913408;29;20458;-72
2022/11/26 03:02:44;;;;;;;24.60;14.37;;;6.90;99.90;;;;;;4911905;29;20507;-72
2022/11/26 03:05:14;;;;;;;20.37;14.57;;;7.00;99.90;;;;;;4912599;29;20466;-72
2022/11/26 03:07:41;;;;;;;20.83;14.13;;;6.90;99.90;;;;;;4912677;29;20454;-72
2022/11/26 03:10:09;;;;;;;22.10;14.33;;;6.90;99.90;;;;;;4913042;29;20462;-72
2022/11/26 03:12:35;;;;;;;26.23;15.07;;;6.90;99.90;;;;;;4912134;29;20490;-72
2022/11/26 03:15:02;;;;;;;26.63;14.67;;;6.90;99.90;;;;;;4911316;29;20548;-71
2022/11/26 03:17:30;;;;;;;20.97;14.87;;;6.90;99.90;;;;;;4912743;29;20451;-72
2022/11/26 03:19:57;;;;;;;21.50;13.53;;;6.90;99.90;;;;;;4912263;29;20848;-72
2022/11/26 03:22:24;;;;;;;21.70;14.53;;;6.90;99.90;;;;;;4910917;29;20847;-72
2022/11/26 03:24:51;;;;;;;24.33;14.90;;;6.90;99.90;;;;;;4912710;29;20494;-72
2022/11/26 03:27:17;;;;;;;21.03;14.90;;;6.90;99.90;;;;;;4912205;29;20495;-71
2022/11/26 03:29:44;;;;;;;25.43;14.70;;;7.00;99.90;;;;;;4912347;29;20466;-72
2022/11/26 03:32:11;;;;;;;20.83;13.50;;;7.00;99.90;;;;;;4911060;29;20479;-72
2022/11/26 03:34:39;;;;;;;20.30;13.77;;;7.00;99.90;;;;;;4912124;29;20459;-72
2022/11/26 03:37:06;;;;;;;23.13;13.03;;;7.10;99.90;;;;;;4912375;29;20467;-72
2022/11/26 03:39:32;;;;;;;19.83;13.60;;;7.10;99.90;;;;;;4912197;29;20474;-73
2022/11/26 03:41:59;;;;;;;18.40;13.40;;;7.10;99.90;;;;;;4911458;29;20483;-72
2022/11/26 03:44:26;;;;;;;18.30;13.50;;;7.10;99.90;;;;;;4912058;29;20501;-71
2022/11/26 03:46:53;;;;;;;19.03;13.40;;;7.10;99.90;;;;;;4912305;29;20467;-72
2022/11/26 03:49:19;;;;;;;23.07;13.60;;;7.10;99.90;;;;;;4911802;29;20478;-72
2022/11/26 03:51:48;;;;;;;17.37;11.83;;;7.20;99.90;;;;;;4911443;29;20490;-73
2022/11/26 03:54:15;;;;;;;15.80;12.63;;;7.20;99.90;;;;;;4911360;29;20456;-73
2022/11/26 03:56:41;;;;;;;20.23;12.80;;;7.10;99.90;;;;;;4912088;29;20463;-73
2022/11/26 03:59:08;;;;;;;17.60;12.53;;;7.20;99.90;;;;;;4912087;29;20548;-73
2022/11/26 04:01:35;;;;;;;20.33;11.50;;;7.10;99.90;;;;;;4911163;29;20502;-71
2022/11/26 04:04:02;;;;;;;18.70;12.40;;;7.10;99.90;;;;;;4911726;29;20486;-73
2022/11/26 04:06:29;;;;;;;24.60;13.20;;;7.10;99.90;;;;;;4911133;29;20467;-73
2022/11/26 04:08:57;;;;;;;24.50;13.33;;;7.10;99.90;;;;;;4911697;29;20474;-71
2022/11/26 04:11:23;;;;;;;17.63;13.37;;;7.10;99.90;;;;;;4911679;29;20464;-72
2022/11/26 04:13:50;;;;;;;20.10;14.07;;;7.10;99.90;;;;;;4910785;29;20459;-72
2022/11/26 04:16:17;;;;;;;24.03;14.10;;;7.10;99.90;;;;;;4909909;29;20464;-72
2022/11/26 04:18:44;;;;;;;19.33;12.80;;;7.00;99.90;;;;;;4911753;29;20487;-72
2022/11/26 04:21:11;;;;;;;21.07;13.90;;;7.00;99.90;;;;;;4911559;29;20491;-72
2022/11/26 04:23:37;;;;;;;18.80;14.17;;;7.00;99.90;;;;;;4910478;29;20550;-73
2022/11/26 04:26:06;;;;;;;20.03;13.30;;;7.10;99.90;;;;;;4911235;29;20474;-73
2022/11/26 04:28:32;;;;;;;26.40;15.37;;;7.10;99.90;;;;;;4911141;29;20469;-73
2022/11/26 04:30:59;;;;;;;20.03;12.80;;;7.10;99.90;;;;;;4911201;29;20467;-73
2022/11/26 04:33:26;;;;;;;25.90;13.83;;;7.10;99.90;;;;;;4910092;29;20483;-73
2022/11/26 04:35:53;;;;;;;28.13;14.63;;;7.10;99.90;;;;;;4911172;29;20523;-73
2022/11/26 04:38:20;;;;;;;20.07;12.67;;;7.10;99.90;;;;;;4911557;29;20472;-73
2022/11/26 04:40:47;;;;;;;17.83;12.40;;;7.20;99.90;;;;;;4910952;29;20466;-73
2022/11/26 04:43:16;;;;;;;20.40;14.03;;;7.20;99.90;;;;;;4909793;29;20503;-73
2022/11/26 04:45:42;;;;;;;19.13;12.70;;;7.20;99.90;;;;;;4910609;29;20463;-73
2022/11/26 04:48:09;;;;;;;18.17;12.70;;;7.20;99.90;;;;;;4910505;29;20815;-73
2022/11/26 04:50:36;;;;;;;18.83;11.80;;;7.20;99.90;;;;;;4910879;29;20464;-73
2022/11/26 04:53:03;;;;;;;24.57;13.30;;;7.20;99.90;;;;;;4910110;29;20849;-73
2022/11/26 04:55:30;;;;;;;20.47;12.93;;;7.20;99.90;;;;;;4910595;29;20478;-74
2022/11/26 04:57:57;;;;;;;19.27;13.10;;;7.20;99.90;;;;;;4910923;29;20459;-73
2022/11/26 05:00:25;;;;;;;25.60;12.70;;;7.20;99.90;;;;;;4910778;29;20463;-73
2022/11/26 05:02:52;;;;;;;24.90;12.50;;;7.20;99.90;;;;;;4909492;29;20490;-73
2022/11/26 05:05:19;;;;;;;23.10;13.60;;;7.10;99.90;;;;;;4910565;29;20475;-73
2022/11/26 05:07:46;;;;;;;17.20;11.87;;;7.10;99.90;;;;;;4910844;29;20971;-75
2022/11/26 05:10:13;;;;;;;23.87;12.37;;;7.20;99.90;;;;;;4910708;29;20964;-73
2022/11/26 05:12:40;;;;;;;22.63;13.33;;;7.20;99.90;;;;;;4909801;29;20483;-76
2022/11/26 05:15:08;;;;;;;21.33;12.50;;;7.20;99.90;;;;;;4909891;29;20459;-73
2022/11/26 05:17:36;;;;;;;23.17;13.23;;;7.20;99.90;;;;;;4910698;29;20463;-74
2022/11/26 05:20:03;;;;;;;20.67;12.60;;;7.20;99.90;;;;;;4910213;29;20467;-74
2022/11/26 05:22:30;;;;;;;16.43;12.27;;;7.30;99.90;;;;;;4909572;29;20949;-72
2022/11/26 05:24:57;;;;;;;19.43;14.07;;;7.30;99.90;;;;;;4910571;29;20868;-74
2022/11/26 05:27:23;;;;;;;25.43;13.80;;;7.30;99.90;;;;;;4910945;29;20533;-73
2022/11/26 05:29:50;;;;;;;19.47;12.60;;;7.20;99.90;;;;;;4910432;29;20471;-74
2022/11/26 05:32:17;;;;;;;20.73;13.20;;;7.20;99.90;;;;;;4909524;29;20490;-76
2022/11/26 05:34:45;;;;;;;18.60;12.80;;;7.30;99.90;;;;;;4910161;29;20459;-72
2022/11/26 05:37:12;;;;;;;18.80;12.50;;;7.30;99.90;;;;;;4910282;29;21329;-73
2022/11/26 05:39:38;;;;;;;20.40;13.20;;;7.30;99.90;;;;;;4910097;29;20470;-73
2022/11/26 05:42:06;;;;;;;21.90;13.40;;;7.30;99.90;;;;;;4908937;29;20479;-74
2022/11/26 05:44:33;;;;;;;16.70;13.07;;;7.30;99.90;;;;;;4909699;29;20495;-73
2022/11/26 05:47:00;;;;;;;21.30;13.30;;;7.30;99.90;;;;;;4910043;29;20459;-73
2022/11/26 05:49:26;;;;;;;24.93;12.80;;;7.30;99.90;;;;;;4910375;29;20467;-76
2022/11/26 05:51:54;;;;;;;21.80;11.93;;;7.30;99.90;;;;;;4909633;29;20490;-73
2022/11/26 05:54:21;;;;;;;14.83;11.67;;;7.30;99.90;;;;;;4911212;29;20548;-72
2022/11/26 05:56:48;;;;;;;19.77;13.00;;;7.30;99.90;;;;;;4910605;29;20471;-73
2022/11/26 05:59:15;;;;;;;19.13;13.37;;;7.30;99.90;;;;;;4910422;29;20473;-73
2022/11/26 06:01:41;;;;;;;21.77;12.73;;;7.30;99.90;;;;;;4908585;29;20496;-73
2022/11/26 06:04:08;;;;;;;24.80;13.53;;;7.30;99.90;;;;;;4909497;29;21001;-74
2022/11/26 06:06:35;;;;;;;26.23;15.80;;;7.30;99.90;;;;;;4909780;29;20470;-75
2022/11/26 06:09:04;;;;;;;31.50;16.90;;;7.40;99.90;;;;;;4909870;29;21241;-73
2022/11/26 06:11:31;;;;;;;28.40;16.00;;;7.30;99.90;;;;;;4909946;29;20467;-76
2022/11/26 06:13:57;;;;;;;27.40;17.30;;;7.30;99.90;;;;;;4908752;29;20452;-73
2022/11/26 06:16:24;;;;;;;19.50;13.13;;;7.30;99.90;;;;;;4909748;29;21136;-73
2022/11/26 06:18:51;;;;;;;26.03;14.30;;;7.40;99.90;;;;;;4910152;29;20460;-73
2022/11/26 06:21:18;;;;;;;26.47;15.60;;;7.40;99.90;;;;;;4909509;29;20466;-73
2022/11/26 06:23:45;;;;;;;26.90;15.40;;;7.30;99.90;;;;;;4909042;29;21094;-74
2022/11/26 06:26:13;;;;;;;25.20;13.83;;;7.30;99.90;;;;;;4909991;29;20820;-73
2022/11/26 06:28:40;;;;;;;23.63;15.17;;;7.30;99.90;;;;;;4909475;29;20952;-74
2022/11/26 06:31:09;;;;;;;27.27;16.30;;;7.30;99.90;;;;;;4909711;29;20468;-74
2022/11/26 06:33:36;;;;;;;22.70;16.03;;;7.30;99.90;;;;;;4910867;29;20492;-73
2022/11/26 06:36:04;;;;;;;24.43;15.40;;;7.30;99.90;;;;;;4914809;29;20467;-73
2022/11/26 06:38:31;;;;;;;26.80;15.60;;;7.30;99.90;;;;;;4915076;29;20869;-68
2022/11/26 06:40:59;;;;;;;24.80;15.37;;;7.30;99.90;;;;;;4915368;29;20459;-65
2022/11/26 06:43:28;;;;;;;30.57;15.43;;;7.30;99.90;;;;;;4914470;29;20554;-65
2022/11/26 06:45:54;;;;;;;35.40;26.30;;;7.30;99.90;;;;;;4915250;29;20459;-65
2022/11/26 06:48:24;;;;;;;41.20;31.23;;;7.20;99.90;;;;;;4915486;29;20544;-65
2022/11/26 06:50:51;;;;;;;42.83;28.20;;;7.20;99.90;;;;;;4915359;29;20885;-65
2022/11/26 06:53:17;;;;;;;31.80;19.50;;;7.20;99.90;;;;;;4915278;29;20486;-75
2022/11/26 06:55:44;;;;;;;31.67;19.87;;;7.20;99.90;;;;;;4915781;29;20459;-76
2022/11/26 06:58:11;;;;;;;34.37;25.80;;;7.20;99.90;;;;;;4915634;29;20459;-75
2022/11/26 07:00:39;;;;;;;38.93;29.43;;;7.20;99.90;;;;;;4915735;29;20464;-77
2022/11/26 07:03:06;;;;;;;41.57;31.33;;;7.20;99.90;;;;;;4915113;29;20487;-77
2022/11/26 07:05:34;;;;;;;37.40;26.40;;;7.20;99.90;;;;;;4915821;29;20501;-76
2022/11/26 07:08:01;;;;;;;35.20;22.87;;;7.20;99.90;;;;;;4915705;29;20514;-78
2022/11/26 07:10:28;;;;;;;22.03;16.23;;;7.30;99.90;;;;;;4915819;29;20460;-75
2022/11/26 07:12:55;;;;;;;26.05;16.00;;;7.30;99.90;;;;;;4917417;29;20991;-76
2022/11/26 07:15:22;;;;;;;28.13;14.17;;;7.40;99.90;;;;;;4918798;29;20211;-76
2022/11/26 07:17:50;;;;;;;19.93;13.33;;;7.40;99.90;;;;;;4919180;29;20440;-76
2022/11/26 07:20:17;;;;;;;19.67;13.67;;;7.40;99.90;;;;;;4917387;29;20478;-76
2022/11/26 07:22:43;;;;;;;27.77;13.97;;;7.40;99.90;;;;;;4918054;29;20490;-76
2022/11/26 07:25:11;;;;;;;23.40;13.63;;;7.40;99.90;;;;;;4919023;29;20494;-76
2022/11/26 07:27:37;;;;;;;24.33;15.13;;;7.40;99.90;;;;;;4919073;29;20459;-75
2022/11/26 07:30:05;;;;;;;36.00;15.10;;;7.40;99.90;;;;;;4919172;29;20470;-75
2022/11/26 07:32:32;;;;;;;29.80;15.03;;;7.40;99.90;;;;;;4918320;29;20491;-78
2022/11/26 07:35:01;;;;;;;26.67;15.93;;;7.40;99.90;;;;;;4919234;29;20982;-76
2022/11/26 07:37:28;;;;;;;32.00;15.33;;;7.40;99.90;;;;;;4919131;29;20463;-76
2022/11/26 07:39:55;;;;;;;34.20;17.37;;;7.30;99.90;;;;;;4918191;29;20838;-75
2022/11/26 07:42:21;;;;;;;29.10;18.47;;;7.20;99.90;;;;;;4917942;29;20855;-77
2022/11/26 07:44:48;;;;;;;32.40;20.00;;;7.20;99.90;;;;;;4918805;29;20497;-75
2022/11/26 07:47:15;;;;;;;32.30;19.20;;;7.20;99.90;;;;;;4918683;29;20455;-76
2022/11/26 07:49:42;;;;;;;32.07;17.77;;;7.20;99.90;;;;;;4919287;29;20880;-77
2022/11/26 07:52:10;;;;;;;27.00;16.37;;;7.20;99.90;;;;;;4918567;29;20494;-77
2022/11/26 07:54:37;;;;;;;27.80;18.33;;;7.30;99.90;;;;;;4919205;29;20462;-76
2022/11/26 07:57:04;;;;;;;28.90;18.17;;;7.30;99.90;;;;;;4917797;29;20466;-76
2022/11/26 07:59:31;;;;;;;31.23;18.17;;;7.40;99.90;;;;;;4918449;29;20470;-76
2022/11/26 08:01:58;;;;;;;28.27;18.10;;;7.40;99.90;;;;;;4918360;29;20497;-75
2022/11/26 08:04:25;;;;;;;29.30;16.87;;;7.40;99.90;;;;;;4918701;29;20484;-76
2022/11/26 08:06:51;;;;;;;33.53;19.27;;;7.50;99.90;;;;;;4918657;29;20469;-76
2022/11/26 08:09:19;;;;;;;25.23;18.63;;;7.50;99.90;;;;;;4918508;29;20865;-77
2022/11/26 08:11:46;;;;;;;29.80;17.40;;;7.50;99.90;;;;;;4918451;29;20574;-78
2022/11/26 08:14:13;;;;;;;37.33;19.80;;;7.60;99.90;;;;;;4918120;29;20455;-75
2022/11/26 08:16:40;;;;;;;34.70;19.30;;;7.60;99.90;;;;;;4918703;29;20456;-77
2022/11/26 08:19:15;;;;;;;29.30;17.70;;;7.60;99.90;;;;;;4918330;29;20478;-76
2022/11/26 08:21:56;;;;;;;34.33;19.47;;;7.60;99.90;;;;;;4917655;29;20487;-75
2022/11/26 08:24:29;;;;;;;30.73;19.57;;;7.60;99.90;;;;;;4915922;29;20494;-77
2022/11/26 08:26:59;;;;;;;27.60;16.87;;;7.60;99.90;;;;;;4918365;29;20443;-76
2022/11/26 08:29:27;;;;;;;31.00;18.50;;;7.60;99.90;;;;;;4918704;29;20463;-76
2022/11/26 08:31:56;;;;;;;30.50;16.30;;;7.60;99.90;;;;;;4917977;29;20862;-77
2022/11/26 08:34:24;;;;;;;37.23;18.33;;;7.50;99.90;;;;;;4918476;29;20555;-76
2022/11/26 08:36:55;;;;;;;28.80;16.97;;;7.50;99.90;;;;;;4918241;29;20467;-76
2022/11/26 08:39:22;;;;;;;30.70;17.20;;;7.50;99.90;;;;;;4917872;29;20989;-75
2022/11/26 08:41:50;;;;;;;32.50;18.57;;;7.50;99.90;;;;;;4917923;29;20843;-76
2022/11/26 08:44:17;;;;;;;29.20;17.30;;;7.50;99.90;;;;;;4918122;29;20499;-76
2022/11/26 08:46:46;;;;;;;29.80;18.37;;;7.40;99.90;;;;;;4918205;29;20461;-76
2022/11/26 08:49:16;;;;;;;36.00;18.20;;;7.40;99.90;;;;;;4917912;29;20467;-77
2022/11/26 08:51:45;;;;;;;38.40;22.37;;;7.40;99.90;;;;;;4917378;29;20494;-76
2022/11/26 08:54:12;;;;;;;39.00;20.47;;;7.50;99.90;;;;;;4917010;29;20456;-78
2022/11/26 08:56:39;;;;;;;36.73;19.90;;;7.50;99.90;;;;;;4917771;29;20452;-78
2022/11/26 08:59:09;;;;;;;31.90;19.60;;;7.40;99.90;;;;;;4917264;29;20973;-76
2022/11/26 09:01:36;;;;;;;32.83;18.23;;;7.50;99.90;;;;;;4917007;29;20491;-78
2022/11/26 09:04:04;;;;;;;28.93;17.17;;;7.50;99.90;;;;;;4916913;29;20456;-76
2022/11/26 09:06:36;;;;;;;31.00;16.40;;;7.50;99.90;;;;;;4918005;29;20443;-76
2022/11/26 09:09:14;;;;;;;34.50;16.80;;;7.50;99.90;;;;;;4918403;29;20557;-76
2022/11/26 09:11:43;;;;;;;39.43;15.97;;;7.50;99.90;;;;;;4917854;29;20495;-77
2022/11/26 09:14:15;;;;;;;27.83;14.50;;;7.50;99.90;;;;;;4917307;29;20831;-76
2022/11/26 09:16:44;;;;;;;27.40;15.10;;;7.50;99.90;;;;;;4917361;29;20447;-76
2022/11/26 09:19:16;;;;;;;28.90;14.33;;;7.50;99.90;;;;;;4917226;29;20455;-77
2022/11/26 09:21:43;;;;;;;21.67;14.00;;;7.60;99.90;;;;;;4916915;29;20481;-77
2022/11/26 09:24:15;;;;;;;22.60;13.90;;;7.60;99.90;;;;;;4915622;29;20855;-77
2022/11/26 09:26:47;;;;;;;26.43;15.10;;;7.70;99.90;;;;;;4916597;29;20460;-77
2022/11/26 09:29:17;;;;;;;31.03;16.80;;;7.80;99.90;;;;;;4916565;29;20955;-78
2022/11/26 09:31:46;;;;;;;33.70;17.10;;;7.90;99.90;;;;;;4916506;29;20984;-79
2022/11/26 09:34:14;;;;;;;36.63;15.53;;;7.90;99.90;;;;;;4916611;29;20552;-79
2022/11/26 09:36:41;;;;;;;30.47;14.30;;;8.00;99.90;;;;;;4916762;29;20469;-78
2022/11/26 09:39:14;;;;;;;32.60;14.83;;;8.10;99.90;;;;;;4916365;29;20459;-78
2022/11/26 09:41:45;;;;;;;26.43;14.37;;;8.20;99.90;;;;;;4916432;29;20479;-78
2022/11/26 09:44:24;;;;;;;28.93;13.63;;;8.20;99.90;;;;;;4916337;29;20866;-78
2022/11/26 09:47:01;;;;;;;25.87;13.00;;;8.40;99.90;;;;;;4916588;29;20448;-78
2022/11/26 09:49:36;;;;;;;22.50;12.57;;;8.40;99.90;;;;;;4916604;29;20859;-78
2022/11/26 09:52:07;;;;;;;26.00;13.30;;;8.60;99.90;;;;;;4916141;29;20485;-77
2022/11/26 09:54:37;;;;;;;29.43;13.90;;;8.60;99.90;;;;;;4916517;29;20443;-78
2022/11/26 09:57:20;;;;;;;20.47;11.97;;;8.80;99.90;;;;;;4916426;29;20479;-77
2022/11/26 09:59:50;;;;;;;24.33;10.80;;;8.90;99.90;;;;;;4916702;29;20454;-78
2022/11/26 10:02:16;;;;;;;24.10;11.03;;;8.90;99.90;;;;;;4916275;29;20865;-79
2022/11/26 10:04:44;;;;;;;22.50;11.57;;;9.00;99.90;;;;;;4916337;29;20502;-77
2022/11/26 10:07:30;;;;;;;26.10;12.17;;;8.90;99.90;;;;;;4916403;29;20561;-79
2022/11/26 10:10:05;;;;;;;18.73;9.13;;;9.00;99.90;;;;;;4916623;29;20462;-78
2022/11/26 10:12:41;;;;;;;29.30;9.43;;;9.00;99.90;;;;;;4917573;29;20467;-78
2022/11/26 10:15:16;;;;;;;19.27;9.30;;;8.90;99.90;;;;;;4916337;29;20442;-77
2022/11/26 10:17:51;;;;;;;16.33;8.93;;;8.90;99.90;;;;;;4916262;29;20449;-79
2022/11/26 10:20:45;;;;;;;13.10;8.67;;;8.80;99.90;;;;;;4915932;29;20814;-78
2022/11/26 10:23:21;;;;;;;19.40;10.13;;;8.80;99.90;;;;;;4915968;29;20475;-76
2022/11/26 10:25:51;;;;;;;14.67;8.70;;;8.80;99.90;;;;;;4916017;29;20522;-76
2022/11/26 10:28:21;;;;;;;18.90;9.70;;;8.80;99.90;;;;;;4916784;29;20444;-76
2022/11/26 10:30:58;;;;;;;26.87;9.73;;;8.70;99.90;;;;;;4916774;29;20459;-77
2022/11/26 10:33:28;;;;;;;20.10;8.93;;;8.70;99.90;;;;;;4915855;29;20863;-77
2022/11/26 10:35:55;;;;;;;25.37;9.47;;;8.60;99.90;;;;;;4915833;29;20813;-77
2022/11/26 10:38:22;;;;;;;23.77;11.37;;;8.60;99.90;;;;;;4916107;29;20463;-78
2022/11/26 10:40:48;;;;;;;15.47;8.60;;;8.60;99.90;;;;;;4916487;29;20470;-78
2022/11/26 10:43:19;;;;;;;20.00;8.87;;;8.50;99.90;;;;;;4915682;29;20475;-78
2022/11/26 10:45:47;;;;;;;22.43;10.00;;;8.40;99.90;;;;;;4918029;29;21023;-77
2022/11/26 10:48:26;;;;;;;21.70;10.97;;;8.40;99.90;;;;;;4923557;29;21024;-78
2022/11/26 10:51:06;;;;;;;17.73;9.73;;;8.50;99.90;;;;;;4919948;29;20867;-76
2022/11/26 10:53:49;;;;;;;24.63;10.00;;;8.50;99.90;;;;;;4919994;29;20479;-77
2022/11/26 10:56:19;;;;;;;28.73;11.90;;;8.60;99.90;;;;;;4919873;29;20455;-78
2022/11/26 10:58:47;;;;;;;20.17;11.00;;;8.60;99.90;;;;;;4920530;29;20499;-77
2022/11/26 11:01:15;;;;;;;25.07;11.77;;;8.70;99.90;;;;;;4919930;29;20463;-78
2022/11/26 11:03:56;;;;;;;27.70;10.07;;;8.70;99.90;;;;;;4919676;29;20474;-77
2022/11/26 11:06:34;;;;;;;25.53;9.37;;;8.60;99.90;;;;;;4919795;29;20479;-77
2022/11/26 11:09:13;;;;;;;18.30;10.17;;;8.60;99.90;;;;;;4919973;29;20924;-77
2022/11/26 11:11:40;;;;;;;19.63;9.97;;;8.60;99.90;;;;;;4919887;29;20478;-76
2022/11/26 11:14:27;;;;;;;19.93;10.43;;;8.60;99.90;;;;;;4919941;29;20972;-77
2022/11/26 11:16:54;;;;;;;16.93;8.53;;;8.60;99.90;;;;;;4923136;29;20518;-78
2022/11/26 11:19:26;;;;;;;16.80;8.50;;;8.70;99.90;;;;;;4922012;29;20450;-78
2022/11/26 11:21:53;;;;;;;16.40;9.23;;;8.70;99.90;;;;;;4920713;29;21007;-78
2022/11/26 11:24:22;;;;;;;22.97;10.27;;;8.70;99.90;;;;;;4921835;29;20804;-77
2022/11/26 11:26:52;;;;;;;14.03;9.20;;;8.80;99.90;;;;;;4922423;29;20494;-78
2022/11/26 11:29:32;;;;;;;17.60;9.90;;;8.90;99.90;;;;;;4921638;29;20459;-78
2022/11/26 16:19:58;;;;;;;19.07;11.40;;;8.20;99.90;;;;;;4935149;29;20537;-73
2022/11/26 17:15:42;;;;;;;26.73;14.90;;;7.30;99.90;;;;;;6135899;23;20537;31
2022/11/26 17:18:17;;;;;;;19.70;9.50;;;7.30;99.90;;;;;;4914695;29;20472;-75
2022/11/26 17:20:45;;;;;;;18.60;9.17;;;7.20;99.90;;;;;;4916624;29;20958;-75
2022/11/26 17:23:11;;;;;;;16.33;9.03;;;7.10;99.90;;;;;;4916558;29;20451;-76
2022/11/26 17:25:38;;;;;;;17.40;8.30;;;7.10;99.90;;;;;;4916354;29;20522;-75
2022/11/26 17:28:09;;;;;;;16.63;8.93;;;7.10;99.90;;;;;;4916585;29;20470;-75
2022/11/26 17:30:36;;;;;;;15.90;8.30;;;7.10;99.90;;;;;;4916561;29;20955;-75
2022/11/26 17:33:03;;;;;;;17.60;8.27;;;7.10;99.90;;;;;;4916379;29;20470;-75
2022/11/26 17:35:31;;;;;;;19.27;8.90;;;7.00;99.90;;;;;;4916437;29;20455;-75
2022/11/26 17:37:58;;;;;;;19.70;9.50;;;7.00;99.90;;;;;;4916621;29;20459;-75
2022/11/26 17:40:25;;;;;;;73.13;36.57;;;7.00;99.90;;;;;;4916242;29;20466;-75
2022/11/26 17:42:54;;;;;;;64.07;32.30;;;7.00;99.90;;;;;;4916011;29;20467;-75
2022/11/26 17:45:21;;;;;;;69.37;33.63;;;7.00;99.90;;;;;;4916010;29;20959;-76
2022/11/26 17:47:48;;;;;;;55.10;29.70;;;7.00;99.90;;;;;;4916332;29;20466;-75
2022/11/26 17:50:18;;;;;;;36.20;19.40;;;6.90;99.90;;;;;;4916150;29;20459;-75
2022/11/26 17:52:47;;;;;;;20.57;12.40;;;6.90;99.90;;;;;;4916052;29;20454;-75
2022/11/26 17:55:14;;;;;;;16.77;10.10;;;6.90;99.90;;;;;;4915951;29;20459;-75
2022/11/26 17:57:41;;;;;;;16.03;9.40;;;6.80;99.90;;;;;;4915994;29;20861;-75
2022/11/26 18:00:13;;;;;;;16.17;9.57;;;6.80;99.90;;;;;;4916263;29;20466;-75
2022/11/26 18:02:40;;;;;;;18.67;9.63;;;6.70;99.90;;;;;;4916097;29;20566;-75
2022/11/26 18:05:07;;;;;;;23.00;11.87;;;6.70;99.90;;;;;;4916179;29;20471;-75
2022/11/26 18:07:34;;;;;;;17.00;10.37;;;6.70;99.90;;;;;;4915520;29;20487;-75
2022/11/26 18:10:02;;;;;;;17.40;10.80;;;6.60;99.90;;;;;;4916051;29;20467;-75
2022/11/26 18:12:29;;;;;;;17.77;10.47;;;6.60;99.90;;;;;;4915763;29;20459;-75
2022/11/26 18:14:57;;;;;;;22.10;14.50;;;6.60;99.90;;;;;;4916148;29;20470;-75
2022/11/26 18:17:25;;;;;;;24.40;15.13;;;6.60;99.90;;;;;;4915616;29;20483;-75
2022/11/26 18:19:51;;;;;;;27.03;17.23;;;6.60;99.90;;;;;;4915858;29;20956;-75
2022/11/26 18:22:21;;;;;;;29.77;19.80;;;6.50;99.90;;;;;;4915555;29;20464;-75
2022/11/26 18:24:51;;;;;;;29.10;18.90;;;6.50;99.90;;;;;;4915994;29;20459;-75
2022/11/26 18:27:20;;;;;;;26.63;18.10;;;6.50;99.90;;;;;;4915914;29;20554;-75
2022/11/26 18:29:47;;;;;;;30.73;17.93;;;6.40;99.90;;;;;;4915639;29;20455;-75